createdAt,value
2018-10-11T00:00:02.884Z,88.90
2018-10-11T00:02:32.376Z,88.90
2018-10-11T00:05:01.810Z,89.10
2018-10-11T00:07:31.136Z,89.00
2018-10-11T00:10:00.427Z,88.90
2018-10-11T00:12:29.780Z,88.90
2018-10-11T00:14:59.154Z,88.10
2018-10-11T00:17:28.447Z,87.80
2018-10-11T00:19:57.848Z,87.60
2018-10-11T00:22:27.202Z,87.60
2018-10-11T00:24:56.483Z,87.90
2018-10-11T00:27:25.779Z,87.90
2018-10-11T00:29:55.146Z,88.30
2018-10-11T00:32:24.500Z,88.90
2018-10-11T00:34:53.841Z,88.10
2018-10-11T00:37:23.172Z,88.10
2018-10-11T00:39:52.574Z,87.30
2018-10-11T00:42:21.965Z,86.70
2018-10-11T00:44:51.375Z,86.00
2018-10-11T00:47:20.849Z,85.50
2018-10-11T00:49:50.198Z,84.80
2018-10-11T00:52:19.639Z,84.20
2018-10-11T00:54:49.021Z,84.10
2018-10-11T00:57:18.432Z,83.40
2018-10-11T00:59:47.832Z,83.10
2018-10-11T01:02:17.288Z,83.40
2018-10-11T01:04:46.640Z,83.50
2018-10-11T01:07:16.094Z,83.30
2018-10-11T01:09:45.600Z,82.80
2018-10-11T01:12:14.929Z,82.80
2018-10-11T01:14:44.416Z,82.60
2018-10-11T01:17:13.741Z,82.20
2018-10-11T01:19:43.129Z,82.80
2018-10-11T01:22:12.450Z,82.10
2018-10-11T01:24:42.108Z,82.10
2018-10-11T01:27:11.540Z,82.30
2018-10-11T01:29:41.071Z,82.00
2018-10-11T01:32:10.394Z,82.40
2018-10-11T01:34:39.743Z,82.90
2018-10-11T01:37:09.388Z,83.10
2018-10-11T01:39:38.783Z,83.40
2018-10-11T01:42:08.232Z,84.20
2018-10-11T01:44:37.550Z,84.70
2018-10-11T01:47:07.007Z,85.20
2018-10-11T01:49:36.416Z,85.80
2018-10-11T01:52:05.751Z,86.00
2018-10-11T01:54:35.138Z,87.30
2018-10-11T01:57:04.457Z,87.80
2018-10-11T01:59:33.749Z,87.90
2018-10-11T02:02:03.022Z,88.50
2018-10-11T02:04:32.300Z,89.10
2018-10-11T02:07:01.604Z,89.40
2018-10-11T02:09:31.013Z,89.70
2018-10-11T02:12:00.240Z,90.00
2018-10-11T02:14:29.588Z,90.20
2018-10-11T02:16:58.908Z,90.40
2018-10-11T02:19:28.198Z,90.70
2018-10-11T02:21:57.552Z,90.60
2018-10-11T02:24:26.935Z,90.90
2018-10-11T02:26:56.345Z,90.70
2018-10-11T02:29:25.709Z,90.20
2018-10-11T02:31:55.011Z,90.00
2018-10-11T02:34:24.305Z,89.90
2018-10-11T02:36:53.596Z,90.30
2018-10-11T02:39:22.953Z,90.00
2018-10-11T02:41:52.306Z,90.50
2018-10-11T02:44:21.701Z,90.40
2018-10-11T02:46:51.032Z,90.40
2018-10-11T02:49:20.353Z,90.20
2018-10-11T02:51:49.672Z,90.40
2018-10-11T02:54:19.036Z,90.50
2018-10-11T02:56:48.468Z,90.20
2018-10-11T02:59:36.634Z,89.30
2018-10-11T03:02:12.066Z,88.30
2018-10-11T03:04:42.468Z,87.10
2018-10-11T03:07:12.713Z,85.90
2018-10-11T03:09:42.936Z,85.50
2018-10-11T03:12:12.755Z,84.50
2018-10-11T03:14:42.177Z,83.90
2018-10-11T03:17:11.756Z,83.10
2018-10-11T03:19:41.999Z,83.30
2018-10-11T03:22:12.009Z,83.10
2018-10-11T03:24:41.529Z,82.80
2018-10-11T03:27:10.942Z,82.30
2018-10-11T03:29:40.270Z,82.10
2018-10-11T03:32:09.665Z,82.20
2018-10-11T03:34:38.981Z,82.50
2018-10-11T03:37:08.364Z,82.30
2018-10-11T03:39:37.696Z,82.00
2018-10-11T03:42:07.288Z,81.90
2018-10-11T03:44:36.599Z,82.20
2018-10-11T03:47:05.928Z,82.40
2018-10-11T03:49:35.584Z,82.60
2018-10-11T03:52:04.940Z,82.60
2018-10-11T03:54:34.263Z,82.60
2018-10-11T03:57:03.637Z,82.80
2018-10-11T03:59:32.976Z,83.70
2018-10-11T04:02:02.340Z,83.00
2018-10-11T04:04:31.710Z,83.10
2018-10-11T04:07:01.072Z,83.30
2018-10-11T04:09:30.426Z,83.20
2018-10-11T04:11:59.776Z,83.40
2018-10-11T04:14:29.069Z,83.20
2018-10-11T04:16:58.407Z,83.70
2018-10-11T04:19:27.703Z,83.80
2018-10-11T04:21:57.003Z,83.20
2018-10-11T04:24:26.263Z,83.10
2018-10-11T04:26:55.559Z,82.90
2018-10-11T04:29:25.111Z,83.40
2018-10-11T04:31:54.396Z,83.40
2018-10-11T04:34:23.640Z,84.00
2018-10-11T04:36:52.952Z,84.10
2018-10-11T04:39:22.263Z,84.40
2018-10-11T04:41:51.632Z,84.10
2018-10-11T04:44:20.928Z,84.20
2018-10-11T04:46:50.202Z,83.70
2018-10-11T04:49:19.462Z,84.20
2018-10-11T04:51:48.825Z,83.80
2018-10-11T04:54:18.179Z,83.80
2018-10-11T04:56:47.443Z,84.00
2018-10-11T04:59:16.689Z,83.40
2018-10-11T05:01:45.972Z,83.50
2018-10-11T05:04:15.224Z,83.20
2018-10-11T05:06:44.516Z,83.00
2018-10-11T05:09:13.793Z,83.20
2018-10-11T05:11:43.458Z,83.50
2018-10-11T05:14:14.897Z,83.10
2018-10-11T05:16:44.252Z,83.50
2018-10-11T05:19:13.562Z,82.90
2018-10-11T05:21:42.833Z,83.00
2018-10-11T05:24:12.082Z,83.00
2018-10-11T05:26:41.340Z,82.60
2018-10-11T05:29:10.576Z,82.30
2018-10-11T05:31:39.851Z,83.00
2018-10-11T05:34:09.128Z,83.00
2018-10-11T05:36:38.375Z,82.60
2018-10-11T05:39:08.523Z,82.80
2018-10-11T05:41:37.901Z,82.60
2018-10-11T05:44:07.200Z,82.00
2018-10-11T05:46:36.459Z,82.10
2018-10-11T05:49:06.723Z,81.70
2018-10-11T05:51:36.143Z,81.10
2018-10-11T05:54:06.007Z,81.10
2018-10-11T05:56:37.735Z,80.80
2018-10-11T05:59:07.788Z,80.70
2018-10-11T06:01:37.265Z,80.40
2018-10-11T06:04:08.355Z,79.90
2018-10-11T06:06:37.521Z,79.50
2018-10-11T06:09:09.404Z,79.40
2018-10-11T06:11:38.724Z,78.70
2018-10-11T06:14:08.034Z,78.90
2018-10-11T06:16:37.288Z,78.00
2018-10-11T06:19:06.743Z,78.00
2018-10-11T06:21:36.103Z,78.50
2018-10-11T06:24:05.418Z,77.00
2018-10-11T06:26:34.666Z,76.50
2018-10-11T06:29:03.935Z,76.30
2018-10-11T06:31:33.272Z,76.10
2018-10-11T06:34:02.661Z,74.20
2018-10-11T06:36:32.152Z,73.60
2018-10-11T06:39:02.547Z,72.20
2018-10-11T06:41:31.799Z,71.90
2018-10-11T06:44:01.102Z,71.10
2018-10-11T06:46:30.418Z,69.50
2018-10-11T06:48:59.740Z,69.20
2018-10-11T06:51:29.019Z,68.50
2018-10-11T06:53:58.282Z,66.70
2018-10-11T06:56:27.512Z,67.20
2018-10-11T06:58:56.775Z,64.50
2018-10-11T07:01:26.035Z,63.30
2018-10-11T07:03:55.318Z,63.30
2018-10-11T07:06:24.592Z,60.90
2018-10-11T07:08:53.865Z,61.00
2018-10-11T07:11:23.113Z,60.80
2018-10-11T07:13:52.428Z,60.10
2018-10-11T07:16:21.615Z,59.00
2018-10-11T07:18:51.341Z,59.30
2018-10-11T07:21:20.599Z,59.80
2018-10-11T07:23:49.837Z,58.50
2018-10-11T07:26:19.100Z,58.00
2018-10-11T07:28:48.338Z,58.20
2018-10-11T07:31:17.595Z,57.90
2018-10-11T07:33:46.901Z,57.60
2018-10-11T07:36:16.205Z,57.90
2018-10-11T07:38:45.459Z,56.30
2018-10-11T07:41:14.714Z,56.70
2018-10-11T07:43:43.979Z,56.10
2018-10-11T07:46:13.244Z,54.90
2018-10-11T07:48:42.581Z,54.80
2018-10-11T07:51:11.840Z,55.80
2018-10-11T07:53:41.124Z,56.40
2018-10-11T07:56:10.656Z,53.50
2018-10-11T07:58:40.133Z,55.20
2018-10-11T08:01:09.484Z,53.70
2018-10-11T08:03:38.735Z,55.30
2018-10-11T08:06:08.143Z,54.50
2018-10-11T08:08:37.421Z,52.00
2018-10-11T08:11:07.186Z,52.20
2018-10-11T08:13:36.296Z,54.00
2018-10-11T08:16:05.705Z,52.80
2018-10-11T08:18:34.914Z,51.00
2018-10-11T08:21:04.240Z,53.70
2018-10-11T08:23:33.499Z,51.30
2018-10-11T08:26:03.176Z,51.00
2018-10-11T08:28:32.002Z,52.00
2018-10-11T08:31:01.229Z,49.60
2018-10-11T08:33:30.491Z,50.00
2018-10-11T08:35:59.712Z,49.00
2018-10-11T08:38:28.992Z,48.00
2018-10-11T08:40:58.235Z,50.00
2018-10-11T08:43:27.673Z,47.30
2018-10-11T08:45:56.886Z,47.00
2018-10-11T08:48:26.120Z,47.30
2018-10-11T08:50:55.455Z,48.00
2018-10-11T08:53:24.669Z,49.20
2018-10-11T08:55:53.944Z,47.90
2018-10-11T08:58:23.176Z,48.00
2018-10-11T09:00:52.416Z,47.00
2018-10-11T09:03:21.739Z,48.00
2018-10-11T09:05:50.903Z,43.40
2018-10-11T09:08:20.150Z,46.90
2018-10-11T09:10:49.668Z,45.40
2018-10-11T09:13:18.897Z,46.60
2018-10-11T09:15:48.206Z,44.70
2018-10-11T09:18:17.661Z,45.10
2018-10-11T09:20:46.938Z,44.60
2018-10-11T09:23:16.257Z,44.70
2018-10-11T09:25:45.428Z,45.90
2018-10-11T09:28:14.684Z,44.10
2018-10-11T09:30:43.941Z,44.90
2018-10-11T09:33:13.279Z,43.50
2018-10-11T09:35:42.572Z,44.10
2018-10-11T09:38:11.902Z,42.30
2018-10-11T09:40:41.262Z,42.30
2018-10-11T09:43:10.599Z,44.30
2018-10-11T09:45:39.784Z,43.90
2018-10-11T09:48:09.097Z,41.50
2018-10-11T09:50:38.465Z,44.90
2018-10-11T09:53:07.853Z,40.50
2018-10-11T09:55:37.156Z,43.40
2018-10-11T09:58:06.551Z,41.70
2018-10-11T10:00:40.915Z,42.10
2018-10-11T10:03:10.175Z,41.60
2018-10-11T10:05:39.408Z,39.60
2018-10-11T10:08:08.914Z,41.00
2018-10-11T10:10:38.173Z,40.30
2018-10-11T10:13:07.441Z,39.60
2018-10-11T10:15:36.796Z,40.40
2018-10-11T10:18:06.008Z,39.30
2018-10-11T10:20:35.276Z,40.20
2018-10-11T10:23:04.519Z,36.10
2018-10-11T10:25:33.771Z,37.20
2018-10-11T10:28:03.040Z,37.00
2018-10-11T10:30:37.449Z,38.40
2018-10-11T10:33:06.707Z,37.60
2018-10-11T10:35:35.961Z,37.50
2018-10-11T10:38:05.223Z,38.60
2018-10-11T10:40:34.571Z,38.30
2018-10-11T10:43:03.784Z,36.10
2018-10-11T10:45:33.024Z,38.00
2018-10-11T10:48:02.328Z,36.10
2018-10-11T10:50:31.570Z,37.00
2018-10-11T10:53:00.837Z,37.20
2018-10-11T10:55:30.169Z,35.50
2018-10-11T10:57:59.398Z,38.00
2018-10-11T11:00:28.724Z,37.10
2018-10-11T11:02:58.131Z,36.00
2018-10-11T11:05:33.956Z,35.50
2018-10-11T11:08:03.234Z,35.80
2018-10-11T11:10:32.461Z,36.60
2018-10-11T11:13:01.806Z,35.10
2018-10-11T11:15:31.011Z,34.90
2018-10-11T11:18:00.268Z,36.00
2018-10-11T11:20:29.511Z,34.20
2018-10-11T11:22:58.787Z,35.40
2018-10-11T11:25:28.065Z,34.20
2018-10-11T11:27:57.350Z,34.50
2018-10-11T11:30:26.568Z,33.60
2018-10-11T11:32:55.890Z,34.70
2018-10-11T11:35:25.219Z,34.20
2018-10-11T11:37:54.623Z,31.80
2018-10-11T11:40:23.883Z,33.40
2018-10-11T11:42:53.147Z,34.20
2018-10-11T11:45:22.387Z,34.10
2018-10-11T11:47:51.641Z,35.20
2018-10-11T11:50:21.021Z,33.60
2018-10-11T11:52:50.182Z,33.80
2018-10-11T11:55:19.406Z,33.40
2018-10-11T11:57:48.689Z,33.20
2018-10-11T12:00:17.876Z,32.50
2018-10-11T12:02:47.177Z,33.00
2018-10-11T12:05:16.484Z,34.30
2018-10-11T12:07:45.652Z,33.20
2018-10-11T12:10:14.930Z,33.30
2018-10-11T12:13:02.896Z,33.40
2018-10-11T12:15:32.753Z,31.10
2018-10-11T12:18:03.017Z,32.50
2018-10-11T12:20:34.487Z,31.60
2018-10-11T12:23:04.917Z,31.20
2018-10-11T12:25:34.360Z,32.10
2018-10-11T12:28:03.682Z,30.50
2018-10-11T12:30:32.970Z,31.00
2018-10-11T12:33:02.215Z,29.30
2018-10-11T12:35:31.874Z,30.00
2018-10-11T12:38:01.111Z,30.00
2018-10-11T12:40:30.340Z,31.00
2018-10-11T12:42:59.618Z,29.50
2018-10-11T12:45:28.859Z,29.30
2018-10-11T12:47:58.136Z,29.70
2018-10-11T12:50:27.384Z,30.60
2018-10-11T12:52:56.677Z,29.70
2018-10-11T12:55:25.941Z,29.60
2018-10-11T12:57:55.172Z,29.40
2018-10-11T13:00:24.408Z,30.10
2018-10-11T13:02:53.691Z,30.40
2018-10-11T13:05:22.831Z,29.70
2018-10-11T13:07:52.184Z,29.00
2018-10-11T13:10:21.473Z,29.30
2018-10-11T13:12:50.731Z,29.00
2018-10-11T13:15:20.108Z,28.70
2018-10-11T13:17:49.320Z,29.50
2018-10-11T13:20:18.589Z,29.50
2018-10-11T13:22:47.855Z,30.30
2018-10-11T13:25:17.040Z,30.20
2018-10-11T13:27:46.247Z,31.60
2018-10-11T13:30:15.479Z,29.60
2018-10-11T13:32:44.713Z,28.60
2018-10-11T13:35:14.068Z,29.90
2018-10-11T13:37:43.228Z,30.60
2018-10-11T13:40:12.509Z,29.30
2018-10-11T13:42:41.874Z,30.20
2018-10-11T13:45:11.223Z,30.60
2018-10-11T13:47:44.855Z,29.50
2018-10-11T13:50:09.731Z,29.80
2018-10-11T13:52:38.979Z,30.00
2018-10-11T13:55:12.154Z,29.70
2018-10-11T13:57:37.548Z,30.50
2018-10-11T14:00:07.684Z,30.00
2018-10-11T14:02:36.968Z,31.00
2018-10-11T14:05:06.351Z,30.20
2018-10-11T14:07:35.731Z,29.90
2018-10-11T14:10:04.975Z,30.30
2018-10-11T14:12:34.276Z,30.20
2018-10-11T14:15:03.593Z,30.50
2018-10-11T14:17:32.928Z,31.70
2018-10-11T14:20:02.164Z,31.90
2018-10-11T14:22:31.431Z,31.50
2018-10-11T14:25:00.678Z,31.20
2018-10-11T14:27:29.985Z,29.90
2018-10-11T14:29:59.295Z,31.20
2018-10-11T14:32:28.636Z,31.30
2018-10-11T14:34:57.933Z,32.10
2018-10-11T14:37:27.191Z,32.90
2018-10-11T14:39:56.465Z,35.10
2018-10-11T14:42:26.784Z,37.80
2018-10-11T14:44:56.041Z,37.00
2018-10-11T14:47:25.320Z,38.70
2018-10-11T14:49:54.603Z,38.70
2018-10-11T14:52:23.905Z,41.40
2018-10-11T14:54:53.202Z,41.40
2018-10-11T14:57:22.613Z,40.50
2018-10-11T14:59:51.816Z,41.10
2018-10-11T15:02:21.096Z,41.20
2018-10-11T15:04:50.333Z,43.50
2018-10-11T15:07:19.644Z,41.00
2018-10-11T15:09:48.905Z,42.10
2018-10-11T15:12:18.178Z,42.40
2018-10-11T15:14:50.376Z,42.70
2018-10-11T15:17:19.616Z,43.60
2018-10-11T15:19:48.850Z,43.00
2018-10-11T15:22:18.156Z,43.70
2018-10-11T15:24:47.408Z,44.30
2018-10-11T15:27:16.744Z,44.60
2018-10-11T15:29:46.055Z,46.00
2018-10-11T15:32:15.295Z,45.30
2018-10-11T15:34:44.561Z,44.00
2018-10-11T15:37:13.811Z,44.90
2018-10-11T15:39:43.056Z,46.40
2018-10-11T15:42:12.308Z,45.60
2018-10-11T15:44:41.546Z,46.40
2018-10-11T15:47:10.816Z,46.10
2018-10-11T15:49:40.085Z,46.50
2018-10-11T15:52:09.503Z,46.90
2018-10-11T15:54:38.736Z,47.00
2018-10-11T15:57:08.165Z,48.80
2018-10-11T15:59:37.434Z,49.30
2018-10-11T16:02:06.781Z,50.60
2018-10-11T16:04:36.038Z,52.50
2018-10-11T16:07:05.335Z,53.40
2018-10-11T16:09:34.636Z,54.40
2018-10-11T16:12:03.901Z,55.20
2018-10-11T16:14:33.209Z,56.20
2018-10-11T16:17:02.561Z,57.30
2018-10-11T16:19:31.824Z,57.20
2018-10-11T16:22:01.089Z,58.30
2018-10-11T16:24:30.310Z,58.10
2018-10-11T16:26:59.629Z,59.80
2018-10-11T16:29:28.885Z,60.80
2018-10-11T16:31:58.219Z,61.80
2018-10-11T16:34:27.632Z,62.80
2018-10-11T16:36:56.880Z,63.50
2018-10-11T16:39:26.113Z,63.90
2018-10-11T16:41:55.340Z,64.20
2018-10-11T16:44:25.641Z,65.50
2018-10-11T16:46:54.868Z,65.20
2018-10-11T16:49:24.086Z,66.50
2018-10-11T16:51:53.783Z,66.90
2018-10-11T16:54:23.094Z,67.60
2018-10-11T16:56:52.635Z,67.50
2018-10-11T16:59:22.084Z,67.90
2018-10-11T17:01:51.324Z,68.30
2018-10-11T17:04:21.078Z,68.30
2018-10-11T17:06:50.270Z,68.30
2018-10-11T17:09:19.508Z,68.20
2018-10-11T17:11:48.766Z,68.40
2018-10-11T17:14:18.040Z,68.30
2018-10-11T17:16:47.279Z,69.10
2018-10-11T17:19:16.716Z,68.90
2018-10-11T17:21:46.076Z,69.90
2018-10-11T17:24:15.265Z,69.60
2018-10-11T17:26:44.500Z,71.20
2018-10-11T17:29:13.721Z,69.70
2018-10-11T17:31:42.971Z,69.90
2018-10-11T17:34:12.314Z,69.10
2018-10-11T17:36:41.551Z,69.00
2018-10-11T17:39:11.679Z,68.70
2018-10-11T17:41:41.470Z,68.70
2018-10-11T17:44:11.487Z,68.20
2018-10-11T17:46:40.788Z,68.10
2018-10-11T17:49:10.096Z,68.20
2018-10-11T17:51:39.323Z,68.20
2018-10-11T17:54:08.567Z,68.60
2018-10-11T17:56:38.267Z,68.90
2018-10-11T17:59:07.657Z,68.70
2018-10-11T18:01:37.018Z,69.00
2018-10-11T18:04:06.292Z,68.70
2018-10-11T18:06:35.546Z,68.80
2018-10-11T18:09:06.733Z,69.20
2018-10-11T18:11:36.012Z,69.20
2018-10-11T18:14:05.254Z,69.10
2018-10-11T18:16:34.500Z,69.50
2018-10-11T18:19:03.723Z,69.50
2018-10-11T18:21:33.001Z,69.70
2018-10-11T18:24:02.263Z,69.70
2018-10-11T18:26:31.616Z,70.30
2018-10-11T18:29:00.898Z,70.60
2018-10-11T18:31:30.134Z,70.70
2018-10-11T18:33:59.451Z,70.70
2018-10-11T18:36:28.848Z,70.90
2018-10-11T18:38:58.107Z,70.50
2018-10-11T18:41:27.445Z,70.30
2018-10-11T18:43:56.727Z,70.50
2018-10-11T18:46:26.030Z,69.20
2018-10-11T18:48:55.350Z,67.40
2018-10-11T18:51:24.757Z,65.80
2018-10-11T18:53:54.063Z,65.80
2018-10-11T18:56:23.320Z,64.60
2018-10-11T18:58:52.583Z,64.70
2018-10-11T19:01:21.871Z,64.90
2018-10-11T19:03:51.125Z,64.80
2018-10-11T19:06:20.554Z,65.50
2018-10-11T19:08:49.900Z,65.90
2018-10-11T19:11:19.251Z,66.80
2018-10-11T19:13:48.579Z,67.40
2018-10-11T19:16:17.844Z,68.50
2018-10-11T19:18:47.149Z,69.70
2018-10-11T19:21:17.262Z,70.30
2018-10-11T19:23:46.752Z,69.70
2018-10-11T19:26:16.009Z,69.70
2018-10-11T19:28:45.307Z,70.30
2018-10-11T19:31:14.624Z,69.90
2018-10-11T19:33:44.016Z,70.00
2018-10-11T19:36:13.273Z,70.30
2018-10-11T19:38:42.683Z,70.20
2018-10-11T19:41:11.968Z,70.20
2018-10-11T19:43:41.209Z,70.80
2018-10-11T19:46:10.638Z,70.50
2018-10-11T19:48:39.856Z,71.10
2018-10-11T19:51:09.108Z,71.80
2018-10-11T19:53:38.362Z,71.70
2018-10-11T19:56:07.678Z,71.70
2018-10-11T19:58:36.976Z,71.00
2018-10-11T20:01:06.236Z,71.40
2018-10-11T20:03:35.526Z,70.50
2018-10-11T20:06:04.841Z,70.30
2018-10-11T20:08:34.228Z,70.90
2018-10-11T20:11:03.366Z,71.10
2018-10-11T20:13:32.672Z,69.90
2018-10-11T20:16:01.975Z,68.60
2018-10-11T20:18:31.304Z,69.70
2018-10-11T20:21:00.572Z,70.30
2018-10-11T20:23:29.953Z,71.70
2018-10-11T20:25:59.336Z,71.40
2018-10-11T20:28:28.581Z,72.00
2018-10-11T20:30:57.852Z,73.00
2018-10-11T20:33:27.161Z,73.60
2018-10-11T20:35:56.545Z,74.10
2018-10-11T20:38:26.218Z,74.10
2018-10-11T20:40:55.575Z,74.60
2018-10-11T20:43:24.931Z,74.40
2018-10-11T20:45:54.147Z,74.30
2018-10-11T20:48:23.508Z,75.10
2018-10-11T20:50:52.755Z,75.80
2018-10-11T20:53:22.079Z,75.70
2018-10-11T20:55:51.328Z,76.10
2018-10-11T20:58:20.656Z,76.10
2018-10-11T21:00:49.901Z,75.50
2018-10-11T21:03:19.203Z,74.60
2018-10-11T21:05:48.492Z,74.40
2018-10-11T21:08:17.699Z,74.40
2018-10-11T21:10:47.071Z,72.40
2018-10-11T21:13:16.307Z,73.00
2018-10-11T21:15:45.606Z,71.60
2018-10-11T21:18:15.074Z,70.90
2018-10-11T21:20:44.371Z,70.20
2018-10-11T21:23:13.682Z,68.10
2018-10-11T21:25:42.998Z,69.00
2018-10-11T21:28:12.298Z,70.30
2018-10-11T21:30:41.552Z,69.90
2018-10-11T21:33:11.025Z,69.70
2018-10-11T21:35:40.279Z,70.30
2018-10-11T21:38:09.566Z,70.90
2018-10-11T21:40:38.843Z,72.30
2018-10-11T21:43:08.083Z,69.80
2018-10-11T21:45:37.376Z,70.00
2018-10-11T21:48:06.713Z,67.60
2018-10-11T21:50:35.973Z,67.60
2018-10-11T21:53:05.270Z,66.90
2018-10-11T21:55:34.570Z,66.90
2018-10-11T21:58:03.841Z,67.50
2018-10-11T22:00:38.587Z,68.00
2018-10-11T22:03:07.872Z,69.50
2018-10-11T22:05:37.128Z,69.20
2018-10-11T22:08:06.409Z,69.40
2018-10-11T22:10:35.674Z,69.40
2018-10-11T22:13:04.949Z,70.80
2018-10-11T22:15:34.204Z,70.00
2018-10-11T22:18:03.510Z,71.20
2018-10-11T22:20:32.864Z,70.20
2018-10-11T22:23:02.152Z,69.90
2018-10-11T22:25:31.415Z,70.00
2018-10-11T22:28:00.720Z,67.70
2018-10-11T22:30:30.009Z,68.00
2018-10-11T22:32:59.273Z,66.90
2018-10-11T22:35:28.693Z,67.60
2018-10-11T22:38:00.338Z,67.70
2018-10-11T22:40:29.953Z,66.20
2018-10-11T22:42:59.216Z,64.40
2018-10-11T22:45:28.556Z,63.60
2018-10-11T22:47:57.863Z,64.10
2018-10-11T22:50:27.971Z,66.40
2018-10-11T22:52:57.439Z,67.10
2018-10-11T22:55:30.777Z,69.40
2018-10-11T22:58:00.810Z,71.50
2018-10-11T23:00:30.207Z,72.50
2018-10-11T23:02:59.500Z,72.50
2018-10-11T23:05:28.811Z,75.00
2018-10-11T23:07:58.165Z,77.00
2018-10-11T23:10:27.456Z,77.30
2018-10-11T23:12:56.749Z,77.60
2018-10-11T23:15:26.109Z,77.90
2018-10-11T23:17:55.364Z,75.70
2018-10-11T23:20:24.652Z,75.70
2018-10-11T23:22:53.899Z,76.00
2018-10-11T23:25:23.156Z,75.50
2018-10-11T23:27:52.407Z,74.80
2018-10-11T23:30:21.664Z,76.80
2018-10-11T23:32:50.953Z,75.80
2018-10-11T23:35:20.244Z,73.30
2018-10-11T23:37:49.569Z,72.50
2018-10-11T23:40:18.863Z,73.90
2018-10-11T23:42:48.183Z,75.60
2018-10-11T23:45:17.483Z,75.60
2018-10-11T23:47:46.715Z,76.00
2018-10-11T23:50:15.981Z,77.00
2018-10-11T23:52:45.252Z,77.20
2018-10-11T23:55:14.624Z,77.90
2018-10-11T23:57:43.977Z,78.70
